Time;durP1;ratioP1;P1;durP2;ratioP2;P2;SDS_P1;SDS_P2;PMS_P1;PMS_P2;Temp;Humidity;BMP_temperature;BMP_pressure;BME280_temperature;BME280_humidity;BME280_pressure;Samples;Min_cycle;Max_cycle;Signal;HPM_P1;HPM_P2
2023/12/19 00:02:12;;;;;;;74.23;40.93;;;7.70;99.90;;;;;;4998036;28;40207;-81
2023/12/19 00:04:38;;;;;;;90.77;44.93;;;7.70;99.90;;;;;;5006346;28;38750;-80
2023/12/19 00:07:15;;;;;;;88.03;44.10;;;7.70;99.90;;;;;;5004060;28;36940;-79
2023/12/19 00:09:46;;;;;;;81.23;43.30;;;7.70;99.90;;;;;;4988445;28;37955;-80
2023/12/19 00:12:15;;;;;;;84.07;44.17;;;7.80;99.90;;;;;;4990387;28;38966;-82
2023/12/19 00:14:44;;;;;;;85.70;44.80;;;7.80;99.90;;;;;;4988092;28;37911;-81
2023/12/19 00:17:10;;;;;;;91.57;44.60;;;7.80;99.90;;;;;;5022717;28;38647;-80
2023/12/19 00:19:37;;;;;;;100.40;47.27;;;7.80;99.90;;;;;;5015273;28;37648;-80
2023/12/19 00:22:05;;;;;;;85.97;47.70;;;7.90;99.90;;;;;;4991026;28;38714;-80
2023/12/19 00:24:33;;;;;;;88.43;45.83;;;7.80;99.90;;;;;;4989771;28;39229;-81
2023/12/19 00:27:01;;;;;;;89.53;44.97;;;7.90;99.90;;;;;;5001283;28;38602;-80
2023/12/19 00:29:29;;;;;;;91.57;46.13;;;7.90;99.90;;;;;;5012550;28;49635;-80
2023/12/19 00:31:55;;;;;;;92.23;47.07;;;7.90;99.90;;;;;;5013701;28;39607;-81
2023/12/19 00:34:22;;;;;;;91.33;44.63;;;7.90;99.90;;;;;;5001445;28;37627;-80
2023/12/19 00:36:50;;;;;;;103.33;47.37;;;8.00;99.90;;;;;;5017511;28;38285;-81
2023/12/19 00:39:18;;;;;;;98.23;47.47;;;7.90;99.90;;;;;;4987757;28;36437;-80
2023/12/19 00:41:47;;;;;;;82.53;43.33;;;7.90;99.90;;;;;;5014126;28;39544;-81
2023/12/19 00:44:37;;;;;;;87.37;46.07;;;8.00;99.90;;;;;;4998438;28;40006;-81
2023/12/19 00:47:10;;;;;;;85.37;46.63;;;8.00;99.90;;;;;;4981950;28;40084;-81
2023/12/19 00:49:36;;;;;;;94.03;47.60;;;8.00;99.90;;;;;;5022945;28;38857;-80
2023/12/19 00:52:02;;;;;;;97.57;46.97;;;8.00;99.90;;;;;;4998257;28;38687;-81
2023/12/19 00:54:32;;;;;;;91.93;47.27;;;8.00;99.90;;;;;;5026817;28;50284;-81
2023/12/19 00:57:20;;;;;;;92.13;46.63;;;8.00;99.90;;;;;;5026781;28;38693;-81
2023/12/19 01:00:04;;;;;;;91.00;45.50;;;8.00;99.90;;;;;;5020893;28;48920;-81
2023/12/19 01:02:35;;;;;;;87.43;46.40;;;8.00;99.90;;;;;;5017153;28;40263;-80
2023/12/19 01:05:01;;;;;;;90.43;46.50;;;8.00;99.90;;;;;;5018277;28;39672;-80
2023/12/19 01:07:34;;;;;;;94.80;46.50;;;8.00;99.90;;;;;;5006260;28;36725;-80
2023/12/19 01:10:03;;;;;;;87.97;46.27;;;8.00;99.90;;;;;;5011619;28;38093;-81
2023/12/19 01:12:33;;;;;;;85.63;45.50;;;8.00;99.90;;;;;;5018482;28;39765;-81
2023/12/19 01:15:07;;;;;;;77.43;41.50;;;8.00;99.90;;;;;;5025616;28;39692;-81
2023/12/19 01:17:40;;;;;;;88.73;45.33;;;8.00;99.90;;;;;;4988483;28;47889;-81
2023/12/19 01:20:09;;;;;;;77.45;43.35;;;8.00;99.90;;;;;;5015886;28;38889;-81
2023/12/19 01:22:36;;;;;;;80.13;44.03;;;8.10;99.90;;;;;;5006354;28;41245;-81
2023/12/19 01:25:05;;;;;;;83.53;44.77;;;8.10;99.90;;;;;;5005538;28;38929;-81
2023/12/19 01:27:33;;;;;;;83.00;44.93;;;8.10;99.90;;;;;;4996485;28;48516;-81
2023/12/19 01:30:41;;;;;;;;;;;;;;;;;;;;;
2023/12/19 01:33:15;;;;;;;89.30;47.60;;;8.00;99.90;;;;;;4974538;28;49719;-81
2023/12/19 01:35:47;;;;;;;82.60;44.30;;;8.00;99.90;;;;;;5006109;28;39861;-80
2023/12/19 01:38:19;;;;;;;113.77;50.30;;;8.00;99.90;;;;;;5003864;28;37998;-81
2023/12/19 01:40:56;;;;;;;101.63;48.67;;;8.00;99.90;;;;;;5007135;28;38829;-81
2023/12/19 01:43:22;;;;;;;101.00;48.83;;;8.00;99.90;;;;;;5003209;28;40906;-81
2023/12/19 01:45:53;;;;;;;81.07;43.67;;;8.00;99.90;;;;;;5017018;28;41234;-80
2023/12/19 01:48:27;;;;;;;93.20;43.40;;;8.00;99.90;;;;;;4999721;28;38300;-81
2023/12/19 01:50:55;;;;;;;85.43;44.87;;;8.00;99.90;;;;;;4996930;28;37570;-82
2023/12/19 01:53:29;;;;;;;91.53;43.03;;;8.00;99.90;;;;;;5000204;28;39270;-81
2023/12/19 01:55:57;;;;;;;85.73;43.83;;;8.00;99.90;;;;;;5027576;28;39218;-81
2023/12/19 01:58:34;;;;;;;78.23;44.33;;;8.00;99.90;;;;;;5004607;28;38888;-81
2023/12/19 02:03:39;;;;;;;84.70;43.10;;;8.00;99.90;;;;;;5182566;22;20839;-81
2023/12/19 02:06:06;;;;;;;93.20;44.77;;;8.00;99.90;;;;;;5010154;28;38674;-81
2023/12/19 02:08:33;;;;;;;88.33;45.00;;;8.00;99.90;;;;;;5015086;28;38426;-81
2023/12/19 02:11:00;;;;;;;77.63;40.40;;;8.00;99.90;;;;;;5014311;28;37650;-81
2023/12/19 02:13:26;;;;;;;84.40;43.80;;;8.00;99.90;;;;;;5005986;28;38184;-81
2023/12/19 02:15:52;;;;;;;80.73;43.03;;;8.00;99.90;;;;;;5001438;28;38537;-81
2023/12/19 02:18:20;;;;;;;68.60;40.57;;;8.00;99.90;;;;;;4994627;28;37095;-81
2023/12/19 02:21:00;;;;;;;71.97;40.97;;;8.00;99.90;;;;;;5000381;28;36290;-81
2023/12/19 02:23:26;;;;;;;88.47;46.77;;;8.00;99.90;;;;;;4998816;28;38873;-81
2023/12/19 02:26:07;;;;;;;83.53;42.13;;;8.00;99.90;;;;;;4993277;28;37899;-81
2023/12/19 02:28:33;;;;;;;87.80;46.00;;;8.00;99.90;;;;;;4997219;28;48731;-81
2023/12/19 02:30:59;;;;;;;82.10;43.03;;;8.10;99.90;;;;;;4995582;28;36546;-81
2023/12/19 02:33:25;;;;;;;82.93;43.27;;;8.10;99.90;;;;;;4992355;28;37942;-80
2023/12/19 02:35:51;;;;;;;99.30;49.40;;;8.10;99.90;;;;;;4987706;28;37370;-80
2023/12/19 02:38:17;;;;;;;84.87;45.13;;;8.10;99.90;;;;;;4985568;28;36901;-80
2023/12/19 02:40:44;;;;;;;82.57;43.23;;;8.00;99.90;;;;;;4989963;28;36586;-79
2023/12/19 02:43:13;;;;;;;71.30;42.57;;;8.10;99.90;;;;;;4990603;28;37933;-81
2023/12/19 02:45:39;;;;;;;87.77;45.80;;;8.10;99.90;;;;;;4999248;28;37929;-80
2023/12/19 02:48:05;;;;;;;85.73;44.30;;;8.10;99.90;;;;;;4990837;28;37358;-80
2023/12/19 02:50:32;;;;;;;89.57;44.10;;;8.10;99.90;;;;;;4974778;28;37627;-79
2023/12/19 02:52:58;;;;;;;92.77;45.47;;;8.10;99.90;;;;;;4990207;28;37621;-79
2023/12/19 02:55:24;;;;;;;87.57;42.63;;;8.10;99.90;;;;;;4994294;28;39443;-79
2023/12/19 02:57:50;;;;;;;84.67;44.97;;;8.10;99.90;;;;;;4991162;28;37351;-80
2023/12/19 03:00:16;;;;;;;91.13;45.23;;;8.10;99.90;;;;;;4991621;28;37715;-80
2023/12/19 03:02:43;;;;;;;78.27;43.60;;;8.10;99.90;;;;;;4986939;28;37652;-79
2023/12/19 03:05:09;;;;;;;88.27;46.70;;;8.10;99.90;;;;;;4987278;28;37047;-79
2023/12/19 03:07:35;;;;;;;78.23;43.43;;;8.10;99.90;;;;;;4988406;28;39810;-80
2023/12/19 03:10:07;;;;;;;72.83;42.60;;;8.10;99.90;;;;;;4989165;28;36211;-79
2023/12/19 03:12:34;;;;;;;73.35;42.70;;;8.10;99.90;;;;;;4982674;28;48825;-80
2023/12/19 03:15:00;;;;;;;88.43;46.70;;;8.10;99.90;;;;;;4986414;28;38409;-79
2023/12/19 03:17:26;;;;;;;83.57;45.43;;;8.10;99.90;;;;;;4987051;28;37535;-81
2023/12/19 03:19:53;;;;;;;75.77;43.27;;;8.10;99.90;;;;;;4987025;28;36105;-80
2023/12/19 03:22:19;;;;;;;78.20;43.00;;;8.10;99.90;;;;;;4984799;28;37404;-80
2023/12/19 03:24:45;;;;;;;78.03;42.37;;;8.10;99.90;;;;;;4972525;28;37281;-80
2023/12/19 03:27:11;;;;;;;84.80;44.53;;;8.20;99.90;;;;;;4992029;28;39112;-80
2023/12/19 03:29:37;;;;;;;71.87;42.17;;;8.10;99.90;;;;;;4990086;28;36349;-80
2023/12/19 03:32:04;;;;;;;75.37;42.37;;;8.10;99.90;;;;;;4985553;28;38581;-80
2023/12/19 03:34:30;;;;;;;83.03;45.43;;;8.20;99.90;;;;;;4988171;28;37347;-80
2023/12/19 03:36:56;;;;;;;74.00;43.00;;;8.20;99.90;;;;;;4985025;28;36995;-79
2023/12/19 03:39:22;;;;;;;71.10;42.07;;;8.20;99.90;;;;;;4988578;28;37658;-80
2023/12/19 03:41:49;;;;;;;75.30;41.73;;;8.20;99.90;;;;;;4990425;28;39231;-79
2023/12/19 03:44:16;;;;;;;72.50;41.33;;;8.30;99.90;;;;;;4987903;28;38855;-79
2023/12/19 03:46:42;;;;;;;86.67;44.43;;;8.20;99.90;;;;;;5005792;28;37312;-79
2023/12/19 03:49:08;;;;;;;68.10;41.03;;;8.30;99.90;;;;;;4991264;28;36537;-79
2023/12/19 03:51:34;;;;;;;69.13;40.20;;;8.30;99.90;;;;;;4991694;28;38656;-79
2023/12/19 03:54:00;;;;;;;73.40;40.77;;;8.20;99.90;;;;;;4992280;28;37341;-80
2023/12/19 03:56:27;;;;;;;67.37;39.37;;;8.30;99.90;;;;;;4989711;28;37364;-79
2023/12/19 03:58:53;;;;;;;65.60;39.77;;;8.30;99.90;;;;;;4995809;28;38719;-80
2023/12/19 04:01:20;;;;;;;71.17;41.50;;;8.30;99.90;;;;;;4996266;28;38111;-79
2023/12/19 04:03:46;;;;;;;64.90;40.33;;;8.20;99.90;;;;;;4997870;28;38171;-79
2023/12/19 04:06:12;;;;;;;70.07;39.03;;;8.20;99.90;;;;;;4999392;28;39846;-80
2023/12/19 04:08:38;;;;;;;79.00;41.37;;;8.30;99.90;;;;;;5005768;28;36854;-80
2023/12/19 04:11:04;;;;;;;82.03;43.60;;;8.30;99.90;;;;;;5000867;28;37673;-80
2023/12/19 04:13:31;;;;;;;66.40;38.67;;;8.30;99.90;;;;;;5002072;28;38468;-80
2023/12/19 04:15:57;;;;;;;67.20;38.57;;;8.30;99.90;;;;;;5002125;28;38280;-79
2023/12/19 04:18:23;;;;;;;75.43;40.60;;;8.20;99.90;;;;;;5002257;28;36353;-79
2023/12/19 04:20:49;;;;;;;63.57;38.57;;;8.20;99.90;;;;;;4998970;28;37666;-80
2023/12/19 04:23:15;;;;;;;70.87;39.43;;;8.20;99.90;;;;;;5004233;28;38817;-80
2023/12/19 04:25:42;;;;;;;58.03;38.27;;;8.20;99.90;;;;;;5002290;28;39112;-79
2023/12/19 04:28:08;;;;;;;67.37;38.37;;;8.20;99.90;;;;;;4999559;28;36566;-80
2023/12/19 04:30:34;;;;;;;76.13;40.53;;;8.20;99.90;;;;;;5000336;28;40332;-79
2023/12/19 04:33:03;;;;;;;61.53;38.37;;;8.30;99.90;;;;;;4999993;28;37250;-79
2023/12/19 04:35:29;;;;;;;62.07;40.07;;;8.20;99.90;;;;;;4960989;28;47357;-81
2023/12/19 04:37:55;;;;;;;67.83;40.37;;;8.20;99.90;;;;;;4994780;28;36390;-80
2023/12/19 04:40:21;;;;;;;74.13;43.53;;;8.20;99.90;;;;;;4994077;28;38913;-79
2023/12/19 04:42:47;;;;;;;71.67;41.23;;;8.20;99.90;;;;;;5000984;28;37601;-79
2023/12/19 04:45:14;;;;;;;61.47;37.73;;;8.30;99.90;;;;;;5001246;28;38659;-79
2023/12/19 04:47:40;;;;;;;65.73;40.60;;;8.30;99.90;;;;;;4996328;28;38477;-79
2023/12/19 04:50:08;;;;;;;70.00;41.87;;;8.30;99.90;;;;;;4987358;28;39322;-79
2023/12/19 04:52:34;;;;;;;71.43;42.67;;;8.30;99.90;;;;;;4993198;28;38442;-79
2023/12/19 04:55:01;;;;;;;69.63;41.30;;;8.30;99.90;;;;;;4991022;28;36971;-80
2023/12/19 04:57:27;;;;;;;71.47;42.57;;;8.30;99.90;;;;;;4992180;28;38421;-79
2023/12/19 04:59:53;;;;;;;64.50;40.43;;;8.30;99.90;;;;;;4994040;28;38616;-79
2023/12/19 05:02:19;;;;;;;70.33;41.73;;;8.30;99.90;;;;;;4989287;28;38387;-79
2023/12/19 05:04:45;;;;;;;70.33;42.33;;;8.40;99.90;;;;;;4988147;28;37859;-80
2023/12/19 05:07:11;;;;;;;63.27;37.63;;;8.40;99.90;;;;;;4988495;28;36822;-79
2023/12/19 05:09:37;;;;;;;55.43;36.13;;;8.50;99.90;;;;;;4997896;28;37570;-80
2023/12/19 05:12:04;;;;;;;59.10;38.53;;;8.50;99.90;;;;;;4998893;28;38824;-79
2023/12/19 05:14:30;;;;;;;57.80;38.03;;;8.50;99.90;;;;;;4996966;28;38946;-79
2023/12/19 05:16:56;;;;;;;61.57;38.20;;;8.50;99.90;;;;;;4996707;28;37013;-79
2023/12/19 05:19:22;;;;;;;60.73;37.33;;;8.50;99.90;;;;;;4992542;28;37355;-79
2023/12/19 05:21:48;;;;;;;53.33;36.83;;;8.50;99.90;;;;;;4991205;28;37150;-79
2023/12/19 05:24:15;;;;;;;64.13;39.30;;;8.50;99.90;;;;;;4988593;28;38239;-79
2023/12/19 05:26:41;;;;;;;51.07;36.60;;;8.50;99.90;;;;;;4985893;28;36575;-78
2023/12/19 05:29:07;;;;;;;51.17;35.40;;;8.50;99.90;;;;;;4987946;28;38262;-79
2023/12/19 05:31:33;;;;;;;64.17;38.33;;;8.50;99.90;;;;;;4988401;28;38085;-79
2023/12/19 05:33:59;;;;;;;64.83;40.60;;;8.50;99.90;;;;;;4985326;28;37319;-80
2023/12/19 05:36:25;;;;;;;60.97;37.37;;;8.60;99.90;;;;;;4989112;28;37314;-79
2023/12/19 05:38:51;;;;;;;64.37;39.70;;;8.60;99.90;;;;;;4992224;28;39055;-79
2023/12/19 05:41:17;;;;;;;71.63;42.77;;;8.60;99.90;;;;;;4989578;28;38193;-79
2023/12/19 05:43:44;;;;;;;69.57;41.60;;;8.60;99.90;;;;;;4990318;28;38072;-79
2023/12/19 05:46:10;;;;;;;70.93;42.77;;;8.60;99.90;;;;;;4990458;28;36505;-79
2023/12/19 05:48:36;;;;;;;86.27;44.17;;;8.60;99.90;;;;;;4986904;28;39422;-78
2023/12/19 05:51:03;;;;;;;78.83;42.00;;;8.60;99.90;;;;;;4985486;28;38677;-79
2023/12/19 05:53:29;;;;;;;68.50;41.33;;;8.60;99.90;;;;;;4984519;28;37015;-79
2023/12/19 05:55:55;;;;;;;72.73;44.23;;;8.70;99.90;;;;;;4986570;28;37172;-79
2023/12/19 05:58:22;;;;;;;68.43;42.27;;;8.60;99.90;;;;;;4982989;28;37789;-78
2023/12/19 06:00:48;;;;;;;74.53;44.20;;;8.60;99.90;;;;;;4978980;28;37202;-78
2023/12/19 06:03:14;;;;;;;67.87;40.83;;;8.60;99.90;;;;;;4984849;28;37313;-79
2023/12/19 06:05:41;;;;;;;80.13;46.13;;;8.60;99.90;;;;;;4983866;28;38164;-80
2023/12/19 06:08:07;;;;;;;71.93;42.97;;;8.70;99.90;;;;;;4984298;28;38647;-78
2023/12/19 06:10:36;;;;;;;61.23;40.17;;;8.70;99.90;;;;;;4990117;28;36855;-79
2023/12/19 06:13:03;;;;;;;79.77;45.03;;;8.70;99.90;;;;;;4979536;28;37775;-79
2023/12/19 06:15:29;;;;;;;72.07;42.30;;;8.70;99.90;;;;;;4988862;28;37887;-78
2023/12/19 06:17:55;;;;;;;78.13;45.17;;;8.70;99.90;;;;;;4985296;28;37911;-78
2023/12/19 06:20:21;;;;;;;77.10;43.23;;;8.70;99.90;;;;;;4986324;28;38724;-78
2023/12/19 06:22:47;;;;;;;80.40;44.97;;;8.70;99.90;;;;;;4990200;28;37174;-79
2023/12/19 06:25:13;;;;;;;71.57;43.37;;;8.80;99.90;;;;;;4987717;28;37255;-79
2023/12/19 06:27:42;;;;;;;68.33;42.43;;;8.80;99.90;;;;;;4977089;28;38370;-78
2023/12/19 06:30:08;;;;;;;75.90;41.97;;;8.80;99.90;;;;;;4990509;28;38010;-79
2023/12/19 06:32:36;;;;;;;85.73;45.07;;;8.80;99.90;;;;;;4989539;28;37202;-79
2023/12/19 06:35:07;;;;;;;84.53;45.40;;;8.80;99.90;;;;;;5000368;28;36531;-79
2023/12/19 06:37:34;;;;;;;73.37;42.93;;;8.80;99.90;;;;;;4986686;28;48952;-79
2023/12/19 06:40:02;;;;;;;75.87;44.43;;;8.80;99.90;;;;;;4990677;28;37906;-80
2023/12/19 06:42:28;;;;;;;74.50;43.70;;;8.80;99.90;;;;;;4989954;28;39229;-80
2023/12/19 06:44:55;;;;;;;83.87;45.07;;;8.90;99.90;;;;;;4992640;28;36207;-80
2023/12/19 06:47:22;;;;;;;81.07;42.30;;;8.80;99.90;;;;;;4992561;28;37911;-80
2023/12/19 06:49:48;;;;;;;85.10;47.07;;;8.80;99.90;;;;;;4991967;28;37428;-80
2023/12/19 06:52:14;;;;;;;72.33;45.13;;;8.80;99.90;;;;;;4986973;28;36790;-79
2023/12/19 06:54:41;;;;;;;83.17;44.70;;;8.80;99.90;;;;;;4989440;28;36233;-79
2023/12/19 06:57:07;;;;;;;72.90;43.27;;;8.80;99.90;;;;;;4987702;28;38852;-79
2023/12/19 06:59:33;;;;;;;72.17;42.30;;;8.80;99.90;;;;;;4986797;28;37685;-79
2023/12/19 07:01:59;;;;;;;82.03;44.03;;;8.80;99.90;;;;;;4988877;28;37394;-79
2023/12/19 07:04:26;;;;;;;86.87;46.07;;;8.80;99.90;;;;;;4988897;28;36465;-80
2023/12/19 07:06:53;;;;;;;78.23;43.43;;;8.80;99.90;;;;;;4988232;28;39014;-79
2023/12/19 07:09:19;;;;;;;86.83;44.90;;;8.80;99.90;;;;;;4986870;28;38798;-80
2023/12/19 07:11:45;;;;;;;85.60;45.27;;;8.80;99.90;;;;;;4991382;28;36939;-81
2023/12/19 07:14:12;;;;;;;73.87;42.77;;;8.80;99.90;;;;;;4994515;28;37435;-80
2023/12/19 07:16:38;;;;;;;74.80;43.90;;;8.80;99.90;;;;;;4995420;28;37762;-81
2023/12/19 07:19:04;;;;;;;79.37;44.10;;;8.80;99.90;;;;;;4992936;28;37349;-79
2023/12/19 07:21:35;;;;;;;72.50;43.07;;;8.80;99.90;;;;;;4988513;28;35717;-79
2023/12/19 07:24:01;;;;;;;65.40;40.63;;;8.80;99.90;;;;;;4989699;28;36594;-80
2023/12/19 07:26:29;;;;;;;80.27;43.67;;;8.80;99.90;;;;;;4986119;28;47149;-80
2023/12/19 07:28:59;;;;;;;69.63;42.43;;;8.80;99.90;;;;;;4989207;28;37471;-79
2023/12/19 07:31:32;;;;;;;68.83;41.07;;;8.80;99.90;;;;;;4990120;28;37574;-80
2023/12/19 07:34:01;;;;;;;78.80;44.13;;;8.80;99.90;;;;;;4991214;28;37626;-82
2023/12/19 07:36:28;;;;;;;76.10;42.60;;;8.80;99.90;;;;;;4991986;28;49369;-80
2023/12/19 07:38:54;;;;;;;71.50;41.23;;;8.80;99.90;;;;;;5004156;28;39402;-79
2023/12/19 07:41:21;;;;;;;70.30;39.83;;;8.80;99.90;;;;;;4995364;28;38203;-80
2023/12/19 07:43:47;;;;;;;72.13;39.83;;;8.80;99.90;;;;;;4991825;28;37516;-79
2023/12/19 07:46:14;;;;;;;68.60;41.67;;;8.80;99.90;;;;;;4996931;28;38212;-80
2023/12/19 07:48:40;;;;;;;55.60;36.03;;;8.80;99.90;;;;;;4995914;28;38174;-79
2023/12/19 07:51:07;;;;;;;60.13;36.33;;;8.80;99.90;;;;;;4999196;28;37459;-80
2023/12/19 07:53:34;;;;;;;57.93;36.40;;;8.80;99.90;;;;;;4997822;28;36879;-80
2023/12/19 07:56:04;;;;;;;57.13;35.33;;;8.80;99.90;;;;;;4997370;28;37740;-80
2023/12/19 07:58:31;;;;;;;63.13;37.07;;;8.90;99.90;;;;;;4992511;28;48173;-79
2023/12/19 08:00:57;;;;;;;49.43;35.30;;;8.90;99.90;;;;;;5009528;28;37156;-80
2023/12/19 08:03:24;;;;;;;57.40;33.30;;;8.90;99.90;;;;;;4982503;28;37380;-79
2023/12/19 08:05:52;;;;;;;47.43;33.93;;;8.90;99.90;;;;;;4987884;28;38955;-79
2023/12/19 08:08:18;;;;;;;53.90;34.63;;;8.90;99.90;;;;;;4990490;28;37487;-79
2023/12/19 08:10:45;;;;;;;59.33;34.13;;;8.90;99.90;;;;;;4993398;28;37439;-79
2023/12/19 08:13:12;;;;;;;50.83;33.03;;;8.90;99.90;;;;;;4987512;28;39020;-79
2023/12/19 08:15:41;;;;;;;51.93;32.70;;;8.90;99.90;;;;;;4990052;28;39036;-80
2023/12/19 08:18:08;;;;;;;59.33;36.20;;;8.90;99.90;;;;;;5011685;28;36927;-79
2023/12/19 08:20:35;;;;;;;60.30;36.80;;;9.00;99.90;;;;;;5004599;28;37670;-80
2023/12/19 08:23:02;;;;;;;53.87;37.07;;;9.00;99.90;;;;;;5000364;28;36810;-79
2023/12/19 08:25:28;;;;;;;51.93;33.87;;;9.00;99.90;;;;;;4998785;28;38365;-79
2023/12/19 08:27:55;;;;;;;55.30;34.63;;;9.00;99.90;;;;;;4992613;28;38697;-79
2023/12/19 08:30:24;;;;;;;55.90;36.77;;;9.00;99.90;;;;;;4998695;28;38749;-80
2023/12/19 08:32:50;;;;;;;51.13;34.47;;;9.00;99.90;;;;;;4996454;28;36836;-79
2023/12/19 08:35:18;;;;;;;47.87;33.67;;;9.00;99.90;;;;;;4993916;28;39111;-78
2023/12/19 08:37:44;;;;;;;56.53;33.23;;;9.00;99.90;;;;;;4991212;28;37636;-79
2023/12/19 08:40:10;;;;;;;53.93;32.93;;;9.00;99.90;;;;;;4989527;28;37833;-80
2023/12/19 08:42:37;;;;;;;58.87;34.80;;;9.00;99.90;;;;;;4987695;28;36556;-79
2023/12/19 08:45:03;;;;;;;48.30;32.87;;;9.00;99.90;;;;;;4987641;28;37966;-79
2023/12/19 08:47:29;;;;;;;45.10;30.47;;;9.00;99.90;;;;;;4983150;28;39082;-78
2023/12/19 08:49:59;;;;;;;52.50;33.77;;;9.00;99.90;;;;;;5002586;28;38350;-79
2023/12/19 08:52:26;;;;;;;51.30;33.53;;;9.00;99.90;;;;;;4985055;28;37698;-79
2023/12/19 08:54:52;;;;;;;49.50;32.40;;;9.10;99.90;;;;;;4991311;28;38495;-79
2023/12/19 08:57:18;;;;;;;51.40;35.33;;;9.00;99.90;;;;;;4988404;28;38853;-80
2023/12/19 08:59:44;;;;;;;45.80;31.87;;;9.10;99.90;;;;;;4990019;28;38314;-80
2023/12/19 09:02:10;;;;;;;47.17;29.60;;;9.10;99.90;;;;;;4987762;28;36217;-79
2023/12/19 09:04:36;;;;;;;50.37;32.90;;;9.20;99.90;;;;;;4986665;28;37786;-79
2023/12/19 09:07:03;;;;;;;48.07;32.53;;;9.10;99.90;;;;;;4990176;28;38605;-79
2023/12/19 09:09:29;;;;;;;49.43;31.67;;;9.10;99.90;;;;;;5005781;28;38553;-79
2023/12/19 09:11:55;;;;;;;42.07;29.33;;;9.10;99.90;;;;;;4984322;28;38971;-80
2023/12/19 09:14:22;;;;;;;46.57;32.10;;;9.10;99.90;;;;;;5003744;28;39199;-79
2023/12/19 09:16:49;;;;;;;46.97;31.17;;;9.10;99.90;;;;;;4988695;28;38151;-79
2023/12/19 09:19:16;;;;;;;58.07;35.23;;;9.10;99.90;;;;;;4989326;28;37069;-79
2023/12/19 09:21:43;;;;;;;49.07;30.53;;;9.10;99.90;;;;;;4989648;28;38150;-78
2023/12/19 09:24:09;;;;;;;46.60;30.07;;;9.10;99.90;;;;;;4991736;28;39820;-79
2023/12/19 09:26:38;;;;;;;41.80;28.60;;;9.10;99.90;;;;;;4988644;28;38556;-79
2023/12/19 09:29:06;;;;;;;44.37;28.83;;;9.10;99.90;;;;;;4989229;28;37327;-79
2023/12/19 09:31:32;;;;;;;43.43;28.93;;;9.10;99.90;;;;;;4990752;28;37756;-79
2023/12/19 09:33:58;;;;;;;46.30;28.20;;;9.10;99.90;;;;;;4981874;28;39006;-79
2023/12/19 09:36:25;;;;;;;39.07;27.67;;;9.10;99.90;;;;;;4990282;28;38299;-79
2023/12/19 09:38:51;;;;;;;43.40;28.57;;;9.20;99.90;;;;;;4989415;28;37507;-79
2023/12/19 09:41:18;;;;;;;38.50;27.63;;;9.20;99.90;;;;;;4991178;28;37304;-79
2023/12/19 09:43:44;;;;;;;41.77;28.53;;;9.20;99.90;;;;;;4989081;28;38851;-79
2023/12/19 09:46:11;;;;;;;42.30;27.37;;;9.20;99.90;;;;;;4988602;28;37204;-79
2023/12/19 09:48:38;;;;;;;44.43;28.10;;;9.20;99.90;;;;;;4990534;28;37133;-79
2023/12/19 09:51:05;;;;;;;43.43;28.70;;;9.20;99.90;;;;;;4991383;28;36288;-79
2023/12/19 09:53:33;;;;;;;39.23;26.10;;;9.20;99.90;;;;;;4985819;28;37907;-79
2023/12/19 09:56:00;;;;;;;39.30;26.30;;;9.20;99.90;;;;;;5001299;28;38393;-79
2023/12/19 09:58:31;;;;;;;36.83;26.17;;;9.20;99.90;;;;;;4988055;28;40077;-79
2023/12/19 10:00:58;;;;;;;43.40;26.27;;;9.20;99.90;;;;;;4994742;28;37180;-80
2023/12/19 10:03:25;;;;;;;49.80;28.03;;;9.20;99.90;;;;;;4980365;28;38977;-79
2023/12/19 10:05:51;;;;;;;40.33;27.50;;;9.20;99.90;;;;;;4989267;28;37544;-79
2023/12/19 10:08:21;;;;;;;43.07;27.83;;;9.20;99.90;;;;;;4986637;28;37962;-79
2023/12/19 10:10:51;;;;;;;40.80;27.63;;;9.20;99.90;;;;;;4991382;28;36509;-79
2023/12/19 10:13:35;;;;;;;39.43;26.73;;;9.20;99.90;;;;;;4988861;28;38973;-79
2023/12/19 10:16:09;;;;;;;35.30;25.77;;;9.20;99.90;;;;;;4983743;28;38253;-79
2023/12/19 10:18:37;;;;;;;39.40;25.57;;;9.20;99.90;;;;;;4987795;28;47169;-79
2023/12/19 10:21:13;;;;;;;43.93;26.67;;;9.20;99.90;;;;;;4989583;28;37431;-79
2023/12/19 10:23:40;;;;;;;33.73;24.63;;;9.20;99.90;;;;;;4986808;28;37672;-79
2023/12/19 10:26:07;;;;;;;46.27;28.37;;;9.20;99.90;;;;;;4986856;28;37655;-80
2023/12/19 10:28:34;;;;;;;31.53;25.33;;;9.20;99.90;;;;;;4975555;28;38089;-79
2023/12/19 10:31:06;;;;;;;36.93;25.00;;;9.20;99.90;;;;;;4988085;28;37448;-80
2023/12/19 10:33:43;;;;;;;35.05;25.50;;;9.20;99.90;;;;;;4992705;28;47100;-79
2023/12/19 10:36:24;;;;;;;38.03;24.63;;;9.20;99.90;;;;;;4985652;28;38421;-80
2023/12/19 10:38:51;;;;;;;28.73;22.60;;;9.20;99.90;;;;;;4985338;28;37333;-79
2023/12/19 10:41:29;;;;;;;34.17;23.43;;;9.20;99.90;;;;;;4983885;28;36893;-80
2023/12/19 10:44:00;;;;;;;34.00;24.07;;;9.20;99.90;;;;;;4979544;28;38270;-79
2023/12/19 10:46:28;;;;;;;33.80;22.10;;;9.20;99.90;;;;;;4984851;28;37531;-80
2023/12/19 10:48:57;;;;;;;37.20;22.33;;;9.20;99.90;;;;;;4981795;28;37024;-80
2023/12/19 10:51:32;;;;;;;26.53;20.40;;;9.20;99.90;;;;;;4999974;28;36472;-80
2023/12/19 10:54:15;;;;;;;30.97;22.30;;;9.20;99.90;;;;;;4996533;28;38048;-79
2023/12/19 10:56:44;;;;;;;;;;;9.30;99.90;;;;;;4993400;28;47438;-80
2023/12/19 10:59:20;;;;;;;28.80;21.53;;;9.30;99.90;;;;;;4990942;28;38098;-79
2023/12/19 11:01:49;;;;;;;32.37;22.77;;;9.30;99.90;;;;;;4987888;28;36767;-80
2023/12/19 11:04:23;;;;;;;28.43;22.00;;;9.30;99.90;;;;;;4989062;28;37342;-79
2023/12/19 11:06:55;;;;;;;28.00;21.67;;;9.30;99.90;;;;;;4995352;28;38706;-80
2023/12/19 11:09:28;;;;;;;32.80;22.80;;;9.30;99.90;;;;;;5001677;28;38671;-80
2023/12/19 11:11:55;;;;;;;33.87;22.60;;;9.30;99.90;;;;;;4995423;28;38422;-80
2023/12/19 11:14:24;;;;;;;31.63;21.10;;;9.30;99.90;;;;;;4999480;28;37507;-79
2023/12/19 11:17:07;;;;;;;30.07;20.90;;;9.20;99.90;;;;;;4999697;28;38116;-80
2023/12/19 11:19:45;;;;;;;30.20;19.47;;;9.20;99.90;;;;;;4998721;28;47113;-79
2023/12/19 11:22:32;;;;;;;29.50;21.13;;;9.20;99.90;;;;;;4999845;28;37189;-80
2023/12/19 11:25:17;;;;;;;30.20;21.97;;;9.20;99.90;;;;;;5000693;28;38720;-81
2023/12/19 11:27:58;;;;;;;29.30;20.57;;;9.30;99.90;;;;;;5001922;28;49096;-79
2023/12/19 11:30:35;;;;;;;28.50;20.43;;;9.30;99.90;;;;;;5000889;28;39231;-79
2023/12/19 11:33:05;;;;;;;25.40;19.23;;;9.30;99.90;;;;;;5000952;28;36037;-80
2023/12/19 11:35:32;;;;;;;22.43;19.27;;;9.30;99.90;;;;;;5003853;28;48233;-80
2023/12/19 11:38:14;;;;;;;28.07;20.53;;;9.30;99.90;;;;;;5000835;28;40080;-80
2023/12/19 11:40:58;;;;;;;23.15;19.27;;;9.30;99.90;;;;;;4999406;28;49002;-80
2023/12/19 11:43:27;;;;;;;33.60;20.60;;;9.30;99.90;;;;;;5003556;28;38030;-81
2023/12/19 11:46:15;;;;;;;30.20;21.07;;;9.30;99.90;;;;;;5002049;28;39142;-80
2023/12/19 11:48:49;;;;;;;29.30;20.70;;;9.30;99.90;;;;;;5000406;28;46684;-79
2023/12/19 11:51:43;;;;;;;27.60;20.73;;;9.30;99.90;;;;;;4995862;28;37086;-80
2023/12/19 11:54:10;;;;;;;26.83;21.63;;;9.30;99.90;;;;;;5000019;28;36294;-80
2023/12/19 11:56:38;;;;;;;27.20;21.03;;;9.30;99.90;;;;;;4988303;28;37870;-80
2023/12/19 11:59:05;;;;;;;25.17;19.77;;;9.30;99.90;;;;;;4993901;28;37330;-80
2023/12/19 12:01:39;;;;;;;24.37;20.37;;;9.30;99.90;;;;;;4989448;28;37065;-80
2023/12/19 12:04:07;;;;;;;21.40;17.93;;;9.30;99.90;;;;;;4988932;28;36221;-80
2023/12/19 12:06:34;;;;;;;25.40;19.40;;;9.30;99.90;;;;;;4992910;28;37785;-79
2023/12/19 12:09:03;;;;;;;26.87;18.77;;;9.30;99.90;;;;;;4993238;28;37507;-80
2023/12/19 12:11:43;;;;;;;22.73;18.83;;;9.30;99.90;;;;;;4992456;28;49178;-81
2023/12/19 12:14:09;;;;;;;27.93;19.83;;;9.30;99.90;;;;;;4992635;28;36274;-79
2023/12/19 12:16:40;;;;;;;21.37;17.27;;;9.30;99.90;;;;;;4993397;28;39267;-79
2023/12/19 12:19:13;;;;;;;22.97;16.93;;;9.30;99.90;;;;;;5000673;28;37339;-79
2023/12/19 12:21:44;;;;;;;21.77;17.53;;;9.30;99.90;;;;;;4998798;28;37723;-80
2023/12/19 12:24:20;;;;;;;20.10;17.20;;;9.30;99.90;;;;;;4998300;28;38658;-81
2023/12/19 12:26:48;;;;;;;20.60;17.30;;;9.30;99.90;;;;;;4999684;28;38843;-80
2023/12/19 12:29:19;;;;;;;25.97;19.57;;;9.30;99.90;;;;;;4996155;28;38327;-79
2023/12/19 12:31:47;;;;;;;28.83;19.37;;;9.40;99.90;;;;;;5000060;28;37015;-79
2023/12/19 12:34:14;;;;;;;27.83;19.20;;;9.40;99.90;;;;;;4998902;28;36535;-80
2023/12/19 12:36:47;;;;;;;22.30;17.80;;;9.40;99.90;;;;;;5001942;28;37608;-80
2023/12/19 12:39:21;;;;;;;20.95;17.25;;;9.40;99.90;;;;;;5001540;28;38389;-80
2023/12/19 12:41:47;;;;;;;20.60;16.53;;;9.40;99.90;;;;;;4995027;28;38471;-79
2023/12/19 12:44:13;;;;;;;21.33;17.70;;;9.40;99.90;;;;;;4990720;28;36621;-79
2023/12/19 12:46:44;;;;;;;21.00;18.37;;;9.40;99.90;;;;;;4989806;28;37661;-79
2023/12/19 12:49:10;;;;;;;19.97;16.17;;;9.40;99.90;;;;;;4988974;28;37483;-80